sensor_id;sensor_type;location;lat;lon;timestamp;pressure;altitude;pressure_sealevel;temperature;humidity
75401;BME280;63974;47.538;18.972;2023-12-20T00:01:27;100368.81;;;-0.69;100.00
75401;BME280;63974;47.538;18.972;2023-12-20T00:04:30;100377.91;;;-0.65;100.00
75401;BME280;63974;47.538;18.972;2023-12-20T00:07:32;100372.09;;;-0.67;100.00
75401;BME280;63974;47.538;18.972;2023-12-20T00:10:36;100364.91;;;-1.01;100.00
75401;BME280;63974;47.538;18.972;2023-12-20T00:13:38;100365.47;;;-1.10;100.00
75401;BME280;63974;47.538;18.972;2023-12-20T00:16:41;100371.91;;;-0.90;100.00
75401;BME280;63974;47.538;18.972;2023-12-20T00:19:43;100360.94;;;-0.78;100.00
75401;BME280;63974;47.538;18.972;2023-12-20T00:22:46;100351.91;;;-0.70;100.00
75401;BME280;63974;47.538;18.972;2023-12-20T00:25:49;100340.25;;;-0.74;100.00
75401;BME280;63974;47.538;18.972;2023-12-20T00:28:52;100348.00;;;-0.75;100.00
75401;BME280;63974;47.538;18.972;2023-12-20T00:31:54;100347.19;;;-0.76;100.00
75401;BME280;63974;47.538;18.972;2023-12-20T00:34:57;100347.47;;;-1.07;100.00
75401;BME280;63974;47.538;18.972;2023-12-20T00:38:00;100337.91;;;-1.17;100.00
75401;BME280;63974;47.538;18.972;2023-12-20T00:41:03;100335.34;;;-1.03;100.00
75401;BME280;63974;47.538;18.972;2023-12-20T00:44:05;100326.41;;;-0.96;100.00
75401;BME280;63974;47.538;18.972;2023-12-20T00:47:08;100320.34;;;-0.81;100.00
75401;BME280;63974;47.538;18.972;2023-12-20T00:50:11;100315.88;;;-0.78;100.00
75401;BME280;63974;47.538;18.972;2023-12-20T00:53:14;100315.25;;;-0.81;100.00
75401;BME280;63974;47.538;18.972;2023-12-20T00:56:16;100310.56;;;-0.75;100.00
75401;BME280;63974;47.538;18.972;2023-12-20T00:59:19;100305.59;;;-0.76;100.00
75401;BME280;63974;47.538;18.972;2023-12-20T01:02:22;100303.41;;;-0.82;100.00
75401;BME280;63974;47.538;18.972;2023-12-20T01:05:24;100292.75;;;-1.01;100.00
75401;BME280;63974;47.538;18.972;2023-12-20T01:08:27;100298.66;;;-1.01;100.00
75401;BME280;63974;47.538;18.972;2023-12-20T01:11:30;100292.91;;;-0.90;100.00
75401;BME280;63974;47.538;18.972;2023-12-20T01:14:32;100292.31;;;-0.81;100.00
75401;BME280;63974;47.538;18.972;2023-12-20T01:17:35;100281.19;;;-0.80;100.00
75401;BME280;63974;47.538;18.972;2023-12-20T01:20:38;100279.38;;;-0.78;100.00
75401;BME280;63974;47.538;18.972;2023-12-20T01:23:41;100280.00;;;-0.75;100.00
75401;BME280;63974;47.538;18.972;2023-12-20T01:26:44;100266.72;;;-0.80;100.00
75401;BME280;63974;47.538;18.972;2023-12-20T01:29:46;100269.91;;;-0.64;100.00
75401;BME280;63974;47.538;18.972;2023-12-20T01:32:49;100255.34;;;-0.62;100.00
75401;BME280;63974;47.538;18.972;2023-12-20T01:35:52;100259.84;;;-0.65;100.00
75401;BME280;63974;47.538;18.972;2023-12-20T01:38:54;100249.66;;;-0.65;100.00
75401;BME280;63974;47.538;18.972;2023-12-20T01:41:57;100250.59;;;-0.80;100.00
75401;BME280;63974;47.538;18.972;2023-12-20T01:45:00;100242.97;;;-0.80;100.00
75401;BME280;63974;47.538;18.972;2023-12-20T01:48:04;100227.59;;;-0.79;100.00
75401;BME280;63974;47.538;18.972;2023-12-20T01:51:07;100226.16;;;-0.70;100.00
75401;BME280;63974;47.538;18.972;2023-12-20T01:54:10;100227.19;;;-0.73;100.00
75401;BME280;63974;47.538;18.972;2023-12-20T01:57:13;100218.41;;;-0.81;100.00
75401;BME280;63974;47.538;18.972;2023-12-20T02:00:16;100206.47;;;-0.81;100.00
75401;BME280;63974;47.538;18.972;2023-12-20T02:03:20;100208.75;;;-0.76;100.00
75401;BME280;63974;47.538;18.972;2023-12-20T02:06:24;100167.31;;;-0.92;100.00
75401;BME280;63974;47.538;18.972;2023-12-20T02:09:31;100204.75;;;-0.68;100.00
75401;BME280;63974;47.538;18.972;2023-12-20T02:12:34;100197.00;;;-0.79;100.00
75401;BME280;63974;47.538;18.972;2023-12-20T02:15:37;100192.50;;;-0.88;100.00
75401;BME280;63974;47.538;18.972;2023-12-20T02:18:43;100194.25;;;-0.88;100.00
75401;BME280;63974;47.538;18.972;2023-12-20T02:21:47;100183.94;;;-0.87;100.00
75401;BME280;63974;47.538;18.972;2023-12-20T02:24:49;100185.88;;;-0.90;100.00
75401;BME280;63974;47.538;18.972;2023-12-20T02:27:52;100186.91;;;-0.80;100.00
75401;BME280;63974;47.538;18.972;2023-12-20T02:30:55;100178.16;;;-0.76;100.00
75401;BME280;63974;47.538;18.972;2023-12-20T02:33:57;100175.06;;;-0.81;100.00
75401;BME280;63974;47.538;18.972;2023-12-20T02:37:00;100178.22;;;-1.29;100.00
75401;BME280;63974;47.538;18.972;2023-12-20T02:40:03;100170.84;;;-1.20;100.00
75401;BME280;63974;47.538;18.972;2023-12-20T02:43:08;100159.19;;;-1.24;100.00
75401;BME280;63974;47.538;18.972;2023-12-20T02:46:12;100161.44;;;-1.19;100.00
75401;BME280;63974;47.538;18.972;2023-12-20T02:49:16;100155.19;;;-1.01;100.00
75401;BME280;63974;47.538;18.972;2023-12-20T02:52:19;100151.00;;;-1.02;100.00
75401;BME280;63974;47.538;18.972;2023-12-20T02:55:22;100152.59;;;-1.14;100.00
75401;BME280;63974;47.538;18.972;2023-12-20T02:58:24;100148.63;;;-1.05;100.00
75401;BME280;63974;47.538;18.972;2023-12-20T03:01:28;100147.84;;;-0.93;100.00
75401;BME280;63974;47.538;18.972;2023-12-20T03:04:32;100137.66;;;-0.93;100.00
75401;BME280;63974;47.538;18.972;2023-12-20T03:07:36;100138.88;;;-0.99;100.00
75401;BME280;63974;47.538;18.972;2023-12-20T03:10:39;100130.31;;;-0.98;100.00
75401;BME280;63974;47.538;18.972;2023-12-20T03:13:42;100119.53;;;-1.01;100.00
75401;BME280;63974;47.538;18.972;2023-12-20T03:16:50;100110.97;;;-1.00;100.00
75401;BME280;63974;47.538;18.972;2023-12-20T03:19:53;100107.06;;;-0.93;100.00
75401;BME280;63974;47.538;18.972;2023-12-20T03:22:56;100114.00;;;-0.95;100.00
75401;BME280;63974;47.538;18.972;2023-12-20T03:25:59;100107.19;;;-0.95;100.00
75401;BME280;63974;47.538;18.972;2023-12-20T03:29:02;100106.66;;;-1.00;100.00
75401;BME280;63974;47.538;18.972;2023-12-20T03:32:05;100111.38;;;-0.94;100.00
75401;BME280;63974;47.538;18.972;2023-12-20T03:35:07;100105.34;;;-0.93;100.00
75401;BME280;63974;47.538;18.972;2023-12-20T03:38:10;100103.50;;;-0.91;100.00
75401;BME280;63974;47.538;18.972;2023-12-20T03:41:13;100093.53;;;-0.94;100.00
75401;BME280;63974;47.538;18.972;2023-12-20T03:44:16;100104.94;;;-0.87;100.00
75401;BME280;63974;47.538;18.972;2023-12-20T03:47:19;100098.22;;;-1.00;100.00
75401;BME280;63974;47.538;18.972;2023-12-20T03:50:25;100088.53;;;-0.95;100.00
75401;BME280;63974;47.538;18.972;2023-12-20T03:53:27;100086.28;;;-0.87;100.00
75401;BME280;63974;47.538;18.972;2023-12-20T03:56:30;100086.78;;;-0.82;100.00
75401;BME280;63974;47.538;18.972;2023-12-20T03:59:37;100083.63;;;-0.86;100.00
75401;BME280;63974;47.538;18.972;2023-12-20T04:02:40;100081.59;;;-0.81;100.00
75401;BME280;63974;47.538;18.972;2023-12-20T04:05:43;100089.06;;;-0.90;100.00
75401;BME280;63974;47.538;18.972;2023-12-20T04:08:46;100061.84;;;-1.02;100.00
75401;BME280;63974;47.538;18.972;2023-12-20T04:11:49;100074.44;;;-0.76;100.00
75401;BME280;63974;47.538;18.972;2023-12-20T04:14:51;100074.97;;;-0.71;100.00
75401;BME280;63974;47.538;18.972;2023-12-20T04:17:54;100072.31;;;-0.69;100.00
75401;BME280;63974;47.538;18.972;2023-12-20T04:20:57;100071.28;;;-0.79;100.00
75401;BME280;63974;47.538;18.972;2023-12-20T04:24:00;100021.88;;;-1.02;100.00
75401;BME280;63974;47.538;18.972;2023-12-20T04:27:03;100071.38;;;-0.68;100.00
75401;BME280;63974;47.538;18.972;2023-12-20T04:30:06;100064.25;;;-0.76;100.00
75401;BME280;63974;47.538;18.972;2023-12-20T04:33:10;100055.28;;;-0.69;100.00
75401;BME280;63974;47.538;18.972;2023-12-20T04:36:13;100053.25;;;-0.76;100.00
75401;BME280;63974;47.538;18.972;2023-12-20T04:39:16;100043.88;;;-0.63;100.00
75401;BME280;63974;47.538;18.972;2023-12-20T04:42:19;100044.09;;;-0.66;100.00
75401;BME280;63974;47.538;18.972;2023-12-20T04:45:22;100036.63;;;-0.69;100.00
75401;BME280;63974;47.538;18.972;2023-12-20T04:48:26;100023.09;;;-0.82;100.00
75401;BME280;63974;47.538;18.972;2023-12-20T04:51:28;100048.25;;;-0.78;100.00
75401;BME280;63974;47.538;18.972;2023-12-20T04:54:31;100046.84;;;-0.82;100.00
75401;BME280;63974;47.538;18.972;2023-12-20T04:57:35;100032.47;;;-0.83;100.00
75401;BME280;63974;47.538;18.972;2023-12-20T05:00:37;100031.94;;;-0.75;100.00
75401;BME280;63974;47.538;18.972;2023-12-20T05:03:40;100034.59;;;-0.77;100.00
75401;BME280;63974;47.538;18.972;2023-12-20T05:06:43;100033.97;;;-0.80;100.00
75401;BME280;63974;47.538;18.972;2023-12-20T05:09:47;100032.47;;;-0.95;100.00
75401;BME280;63974;47.538;18.972;2023-12-20T05:12:49;100031.03;;;-0.87;100.00
75401;BME280;63974;47.538;18.972;2023-12-20T05:15:52;100031.25;;;-0.90;100.00
75401;BME280;63974;47.538;18.972;2023-12-20T05:18:55;100036.38;;;-1.02;100.00
75401;BME280;63974;47.538;18.972;2023-12-20T05:21:58;100025.44;;;-0.92;100.00
75401;BME280;63974;47.538;18.972;2023-12-20T05:25:01;100035.34;;;-0.87;100.00
75401;BME280;63974;47.538;18.972;2023-12-20T05:28:04;100038.50;;;-0.84;100.00
75401;BME280;63974;47.538;18.972;2023-12-20T05:31:07;100030.94;;;-0.85;100.00
75401;BME280;63974;47.538;18.972;2023-12-20T05:34:10;100022.78;;;-0.78;100.00
75401;BME280;63974;47.538;18.972;2023-12-20T05:37:13;100023.09;;;-0.82;100.00
75401;BME280;63974;47.538;18.972;2023-12-20T05:40:16;100014.13;;;-0.88;100.00
75401;BME280;63974;47.538;18.972;2023-12-20T05:43:19;100017.88;;;-0.93;100.00
75401;BME280;63974;47.538;18.972;2023-12-20T05:46:22;100023.22;;;-1.09;100.00
75401;BME280;63974;47.538;18.972;2023-12-20T05:49:25;100034.41;;;-1.24;100.00
75401;BME280;63974;47.538;18.972;2023-12-20T05:52:28;100025.84;;;-1.23;100.00
75401;BME280;63974;47.538;18.972;2023-12-20T05:55:31;100028.09;;;-1.31;100.00
75401;BME280;63974;47.538;18.972;2023-12-20T05:58:33;100046.75;;;-1.18;100.00
75401;BME280;63974;47.538;18.972;2023-12-20T06:01:36;100042.63;;;-1.45;100.00
75401;BME280;63974;47.538;18.972;2023-12-20T06:04:42;100047.72;;;-1.45;100.00
75401;BME280;63974;47.538;18.972;2023-12-20T06:07:46;100042.47;;;-1.30;100.00
75401;BME280;63974;47.538;18.972;2023-12-20T06:10:51;100062.63;;;-1.27;100.00
75401;BME280;63974;47.538;18.972;2023-12-20T06:13:54;100057.53;;;-1.39;100.00
75401;BME280;63974;47.538;18.972;2023-12-20T06:16:57;100049.09;;;-1.27;100.00
75401;BME280;63974;47.538;18.972;2023-12-20T06:20:01;100058.53;;;-1.29;100.00
75401;BME280;63974;47.538;18.972;2023-12-20T06:23:04;100065.78;;;-1.23;100.00
75401;BME280;63974;47.538;18.972;2023-12-20T06:26:07;100070.97;;;-1.25;100.00
75401;BME280;63974;47.538;18.972;2023-12-20T06:29:10;100061.91;;;-1.16;100.00
75401;BME280;63974;47.538;18.972;2023-12-20T06:32:13;100066.88;;;-1.40;100.00
75401;BME280;63974;47.538;18.972;2023-12-20T06:35:15;100066.34;;;-1.84;100.00
75401;BME280;63974;47.538;18.972;2023-12-20T06:38:19;100067.25;;;-1.58;100.00
75401;BME280;63974;47.538;18.972;2023-12-20T06:41:22;100068.25;;;-1.61;100.00
75401;BME280;63974;47.538;18.972;2023-12-20T06:44:27;100069.28;;;-1.63;100.00
75401;BME280;63974;47.538;18.972;2023-12-20T06:47:30;100068.63;;;-1.79;100.00
75401;BME280;63974;47.538;18.972;2023-12-20T06:50:33;100067.06;;;-1.55;100.00
75401;BME280;63974;47.538;18.972;2023-12-20T06:53:36;100057.94;;;-1.33;100.00
75401;BME280;63974;47.538;18.972;2023-12-20T06:56:39;100055.66;;;-1.62;100.00
75401;BME280;63974;47.538;18.972;2023-12-20T06:59:42;100056.38;;;-1.87;100.00
75401;BME280;63974;47.538;18.972;2023-12-20T07:02:45;100051.00;;;-1.43;100.00
75401;BME280;63974;47.538;18.972;2023-12-20T07:05:50;100047.13;;;-1.24;100.00
75401;BME280;63974;47.538;18.972;2023-12-20T07:08:53;100042.06;;;-1.11;100.00
75401;BME280;63974;47.538;18.972;2023-12-20T07:11:55;100030.63;;;-1.18;100.00
75401;BME280;63974;47.538;18.972;2023-12-20T07:14:59;100035.13;;;-1.09;100.00
75401;BME280;63974;47.538;18.972;2023-12-20T07:18:01;100041.22;;;-1.12;100.00
75401;BME280;63974;47.538;18.972;2023-12-20T07:21:05;100043.38;;;-1.06;100.00
75401;BME280;63974;47.538;18.972;2023-12-20T07:24:10;100038.50;;;-0.96;100.00
75401;BME280;63974;47.538;18.972;2023-12-20T07:27:13;100046.22;;;-0.98;100.00
75401;BME280;63974;47.538;18.972;2023-12-20T07:30:16;100045.31;;;-1.09;100.00
75401;BME280;63974;47.538;18.972;2023-12-20T07:33:19;100054.03;;;-1.63;100.00
75401;BME280;63974;47.538;18.972;2023-12-20T07:36:22;100052.81;;;-1.58;100.00
75401;BME280;63974;47.538;18.972;2023-12-20T07:39:25;100041.34;;;-1.26;100.00
75401;BME280;63974;47.538;18.972;2023-12-20T07:42:28;100045.00;;;-1.17;100.00
75401;BME280;63974;47.538;18.972;2023-12-20T07:45:31;100036.94;;;-1.24;100.00
75401;BME280;63974;47.538;18.972;2023-12-20T07:48:36;100043.78;;;-1.24;100.00
75401;BME280;63974;47.538;18.972;2023-12-20T07:51:39;100052.53;;;-1.41;100.00
75401;BME280;63974;47.538;18.972;2023-12-20T07:54:42;100040.31;;;-1.23;100.00
75401;BME280;63974;47.538;18.972;2023-12-20T07:57:45;100049.59;;;-0.97;100.00
75401;BME280;63974;47.538;18.972;2023-12-20T08:00:48;100048.28;;;-0.90;100.00
75401;BME280;63974;47.538;18.972;2023-12-20T08:03:51;100049.66;;;-0.74;100.00
75401;BME280;63974;47.538;18.972;2023-12-20T08:06:54;100052.84;;;-0.70;100.00
75401;BME280;63974;47.538;18.972;2023-12-20T08:09:58;100074.47;;;-1.01;100.00
75401;BME280;63974;47.538;18.972;2023-12-20T08:13:01;100064.03;;;-1.23;100.00
75401;BME280;63974;47.538;18.972;2023-12-20T08:16:04;100055.81;;;-1.14;100.00
75401;BME280;63974;47.538;18.972;2023-12-20T08:19:08;100055.41;;;-0.95;100.00
75401;BME280;63974;47.538;18.972;2023-12-20T08:22:11;100059.28;;;-0.90;100.00
75401;BME280;63974;47.538;18.972;2023-12-20T08:25:14;100050.41;;;-1.22;100.00
75401;BME280;63974;47.538;18.972;2023-12-20T08:28:18;100060.63;;;-0.97;100.00
75401;BME280;63974;47.538;18.972;2023-12-20T08:31:21;100059.91;;;-1.11;100.00
75401;BME280;63974;47.538;18.972;2023-12-20T08:34:24;100052.63;;;-0.67;100.00
75401;BME280;63974;47.538;18.972;2023-12-20T08:37:28;100045.75;;;-0.42;100.00
75401;BME280;63974;47.538;18.972;2023-12-20T08:40:32;100039.69;;;-0.28;100.00
75401;BME280;63974;47.538;18.972;2023-12-20T08:43:35;100039.72;;;-0.05;100.00
75401;BME280;63974;47.538;18.972;2023-12-20T08:46:38;100047.38;;;0.18;100.00
75401;BME280;63974;47.538;18.972;2023-12-20T08:49:41;100040.28;;;-0.25;100.00
75401;BME280;63974;47.538;18.972;2023-12-20T08:52:44;100021.66;;;0.09;100.00
75401;BME280;63974;47.538;18.972;2023-12-20T08:55:47;100041.00;;;0.24;100.00
75401;BME280;63974;47.538;18.972;2023-12-20T08:58:50;100038.41;;;0.47;100.00
75401;BME280;63974;47.538;18.972;2023-12-20T09:01:53;100027.66;;;0.66;100.00
75401;BME280;63974;47.538;18.972;2023-12-20T09:04:57;100024.94;;;0.91;99.18
75401;BME280;63974;47.538;18.972;2023-12-20T09:08:00;100031.78;;;1.01;98.34
75401;BME280;63974;47.538;18.972;2023-12-20T09:11:03;100034.91;;;0.94;98.35
75401;BME280;63974;47.538;18.972;2023-12-20T09:14:06;100026.88;;;0.76;98.41
75401;BME280;63974;47.538;18.972;2023-12-20T09:17:09;100027.13;;;0.95;98.90
75401;BME280;63974;47.538;18.972;2023-12-20T09:20:14;100026.09;;;0.98;99.03
75401;BME280;63974;47.538;18.972;2023-12-20T09:23:17;100027.34;;;1.03;98.29
75401;BME280;63974;47.538;18.972;2023-12-20T09:26:20;100024.25;;;1.11;98.81
75401;BME280;63974;47.538;18.972;2023-12-20T09:29:23;100016.44;;;0.68;98.99
75401;BME280;63974;47.538;18.972;2023-12-20T09:32:27;100017.00;;;0.61;100.00
75401;BME280;63974;47.538;18.972;2023-12-20T09:35:30;100014.38;;;0.95;99.75
75401;BME280;63974;47.538;18.972;2023-12-20T09:38:33;100017.50;;;1.10;99.16
75401;BME280;63974;47.538;18.972;2023-12-20T09:41:37;100012.97;;;1.24;98.26
75401;BME280;63974;47.538;18.972;2023-12-20T09:44:46;100009.03;;;1.31;98.15
75401;BME280;63974;47.538;18.972;2023-12-20T09:47:53;100007.72;;;1.59;98.82
75401;BME280;63974;47.538;18.972;2023-12-20T09:50:57;100009.84;;;1.85;97.51
75401;BME280;63974;47.538;18.972;2023-12-20T09:54:03;99989.28;;;2.07;96.73
75401;BME280;63974;47.538;18.972;2023-12-20T09:57:06;100003.38;;;2.02;96.98
75401;BME280;63974;47.538;18.972;2023-12-20T10:00:10;99988.09;;;2.11;96.69
75401;BME280;63974;47.538;18.972;2023-12-20T10:03:15;99990.19;;;2.17;96.91
75401;BME280;63974;47.538;18.972;2023-12-20T10:06:20;99992.44;;;2.11;96.65
75401;BME280;63974;47.538;18.972;2023-12-20T10:09:24;99990.69;;;2.00;96.62
75401;BME280;63974;47.538;18.972;2023-12-20T10:12:27;99975.47;;;1.99;96.76
75401;BME280;63974;47.538;18.972;2023-12-20T10:15:31;99982.88;;;2.13;95.89
75401;BME280;63974;47.538;18.972;2023-12-20T10:18:34;99986.38;;;2.12;96.25
75401;BME280;63974;47.538;18.972;2023-12-20T10:21:41;99971.31;;;2.18;96.71
75401;BME280;63974;47.538;18.972;2023-12-20T10:24:45;99980.56;;;2.30;95.70
75401;BME280;63974;47.538;18.972;2023-12-20T10:28:09;99975.44;;;2.30;96.38
75401;BME280;63974;47.538;18.972;2023-12-20T10:31:29;99974.25;;;2.34;95.68
75401;BME280;63974;47.538;18.972;2023-12-20T10:34:33;99976.38;;;2.29;96.56
75401;BME280;63974;47.538;18.972;2023-12-20T10:37:37;99976.13;;;2.32;97.03
75401;BME280;63974;47.538;18.972;2023-12-20T10:40:40;99965.25;;;2.19;96.62
75401;BME280;63974;47.538;18.972;2023-12-20T10:43:45;99983.81;;;2.32;97.41
75401;BME280;63974;47.538;18.972;2023-12-20T10:46:48;99981.50;;;2.29;97.01
75401;BME280;63974;47.538;18.972;2023-12-20T10:49:55;99982.44;;;2.48;97.52
75401;BME280;63974;47.538;18.972;2023-12-20T10:52:59;99977.25;;;2.59;97.15
75401;BME280;63974;47.538;18.972;2023-12-20T10:56:03;99976.75;;;2.65;96.78
75401;BME280;63974;47.538;18.972;2023-12-20T10:59:08;99962.59;;;2.71;96.72
75401;BME280;63974;47.538;18.972;2023-12-20T11:02:16;99956.72;;;2.80;96.46
75401;BME280;63974;47.538;18.972;2023-12-20T11:05:40;99945.72;;;2.89;96.26
75401;BME280;63974;47.538;18.972;2023-12-20T11:12:16;99949.94;;;3.09;96.08
75401;BME280;63974;47.538;18.972;2023-12-20T11:15:22;99959.63;;;2.96;95.54
75401;BME280;63974;47.538;18.972;2023-12-20T11:18:30;99959.50;;;2.97;96.63
75401;BME280;63974;47.538;18.972;2023-12-20T11:21:33;99956.53;;;2.92;98.18
75401;BME280;63974;47.538;18.972;2023-12-20T11:24:44;99963.00;;;2.96;97.17
75401;BME280;63974;47.538;18.972;2023-12-20T11:28:11;99960.94;;;2.90;97.27
75401;BME280;63974;47.538;18.972;2023-12-20T11:31:15;99952.56;;;2.88;98.68
75401;BME280;63974;47.538;18.972;2023-12-20T11:34:21;99953.06;;;3.03;99.44
75401;BME280;63974;47.538;18.972;2023-12-20T11:37:30;99946.88;;;3.15;99.11
75401;BME280;63974;47.538;18.972;2023-12-20T11:40:35;99950.28;;;3.25;98.90
75401;BME280;63974;47.538;18.972;2023-12-20T11:43:40;99936.53;;;3.35;99.27
75401;BME280;63974;47.538;18.972;2023-12-20T11:46:44;99946.00;;;3.44;100.00
75401;BME280;63974;47.538;18.972;2023-12-20T11:49:47;99939.25;;;3.43;100.00
75401;BME280;63974;47.538;18.972;2023-12-20T11:52:52;99929.00;;;3.53;100.00
75401;BME280;63974;47.538;18.972;2023-12-20T11:55:55;99923.03;;;3.43;100.00
75401;BME280;63974;47.538;18.972;2023-12-20T11:58:57;99917.13;;;3.52;100.00
75401;BME280;63974;47.538;18.972;2023-12-20T12:02:20;99924.81;;;3.52;100.00
75401;BME280;63974;47.538;18.972;2023-12-20T12:05:23;99924.56;;;3.55;100.00
75401;BME280;63974;47.538;18.972;2023-12-20T12:08:26;99918.75;;;3.53;100.00
75401;BME280;63974;47.538;18.972;2023-12-20T12:11:28;99921.03;;;3.46;100.00
75401;BME280;63974;47.538;18.972;2023-12-20T12:14:32;99909.97;;;3.55;100.00
75401;BME280;63974;47.538;18.972;2023-12-20T12:17:35;99906.31;;;3.58;99.40
75401;BME280;63974;47.538;18.972;2023-12-20T12:20:41;99900.22;;;3.59;98.94
75401;BME280;63974;47.538;18.972;2023-12-20T12:23:46;99890.50;;;3.53;99.40
75401;BME280;63974;47.538;18.972;2023-12-20T12:26:51;99894.56;;;3.55;100.00
75401;BME280;63974;47.538;18.972;2023-12-20T12:30:01;99886.72;;;3.47;100.00
75401;BME280;63974;47.538;18.972;2023-12-20T12:33:06;99886.84;;;3.36;100.00
75401;BME280;63974;47.538;18.972;2023-12-20T12:36:10;99888.84;;;3.23;100.00
75401;BME280;63974;47.538;18.972;2023-12-20T12:39:13;99896.41;;;3.25;100.00
75401;BME280;63974;47.538;18.972;2023-12-20T12:42:19;99893.28;;;3.12;100.00
75401;BME280;63974;47.538;18.972;2023-12-20T12:45:24;99895.31;;;3.08;100.00
75401;BME280;63974;47.538;18.972;2023-12-20T12:48:29;99890.56;;;3.04;100.00
75401;BME280;63974;47.538;18.972;2023-12-20T12:51:32;99898.56;;;3.20;100.00
75401;BME280;63974;47.538;18.972;2023-12-20T12:54:35;99896.66;;;3.22;100.00
75401;BME280;63974;47.538;18.972;2023-12-20T12:57:39;99888.00;;;3.13;100.00
75401;BME280;63974;47.538;18.972;2023-12-20T13:00:41;99889.50;;;3.06;100.00
75401;BME280;63974;47.538;18.972;2023-12-20T13:03:45;99894.47;;;3.08;100.00
75401;BME280;63974;47.538;18.972;2023-12-20T13:06:48;99890.84;;;3.10;100.00
75401;BME280;63974;47.538;18.972;2023-12-20T13:09:51;99902.72;;;3.11;100.00
75401;BME280;63974;47.538;18.972;2023-12-20T13:12:53;99906.91;;;3.12;100.00
75401;BME280;63974;47.538;18.972;2023-12-20T13:15:56;99897.97;;;3.07;100.00
75401;BME280;63974;47.538;18.972;2023-12-20T13:19:00;99914.19;;;3.07;100.00
75401;BME280;63974;47.538;18.972;2023-12-20T13:22:03;99892.28;;;3.03;100.00
75401;BME280;63974;47.538;18.972;2023-12-20T13:25:08;99911.25;;;3.12;100.00
75401;BME280;63974;47.538;18.972;2023-12-20T13:28:11;99918.13;;;3.11;100.00
75401;BME280;63974;47.538;18.972;2023-12-20T13:31:14;99909.19;;;3.15;100.00
75401;BME280;63974;47.538;18.972;2023-12-20T13:34:17;99920.97;;;3.27;100.00
75401;BME280;63974;47.538;18.972;2023-12-20T13:37:20;99928.44;;;3.30;100.00
75401;BME280;63974;47.538;18.972;2023-12-20T13:40:23;99927.34;;;3.33;100.00
75401;BME280;63974;47.538;18.972;2023-12-20T13:43:26;99932.91;;;3.38;100.00
75401;BME280;63974;47.538;18.972;2023-12-20T13:46:29;99937.38;;;3.45;100.00
75401;BME280;63974;47.538;18.972;2023-12-20T13:49:34;99938.72;;;3.40;100.00
75401;BME280;63974;47.538;18.972;2023-12-20T13:52:38;99945.06;;;3.45;99.52
75401;BME280;63974;47.538;18.972;2023-12-20T13:55:42;99941.56;;;3.37;99.59
75401;BME280;63974;47.538;18.972;2023-12-20T13:58:44;99944.78;;;3.39;99.53
75401;BME280;63974;47.538;18.972;2023-12-20T14:01:49;99944.63;;;3.40;100.00
75401;BME280;63974;47.538;18.972;2023-12-20T14:04:53;99927.63;;;3.39;100.00
75401;BME280;63974;47.538;18.972;2023-12-20T14:07:55;99932.91;;;3.38;100.00
75401;BME280;63974;47.538;18.972;2023-12-20T14:11:02;99936.53;;;3.35;100.00
75401;BME280;63974;47.538;18.972;2023-12-20T14:14:04;99928.44;;;3.30;100.00
75401;BME280;63974;47.538;18.972;2023-12-20T14:17:07;99929.91;;;3.33;100.00
75401;BME280;63974;47.538;18.972;2023-12-20T14:20:10;99940.16;;;3.33;100.00
75401;BME280;63974;47.538;18.972;2023-12-20T14:23:15;99933.28;;;3.33;100.00
75401;BME280;63974;47.538;18.972;2023-12-20T14:26:18;99941.66;;;3.26;100.00
75401;BME280;63974;47.538;18.972;2023-12-20T14:29:22;99943.84;;;3.30;100.00
75401;BME280;63974;47.538;18.972;2023-12-20T14:32:27;99935.84;;;3.24;100.00
75401;BME280;63974;47.538;18.972;2023-12-20T14:35:30;99928.44;;;3.30;100.00
75401;BME280;63974;47.538;18.972;2023-12-20T14:38:34;99942.72;;;3.23;100.00
75401;BME280;63974;47.538;18.972;2023-12-20T14:41:36;99926.09;;;3.18;100.00
75401;BME280;63974;47.538;18.972;2023-12-20T14:44:40;99940.81;;;3.25;100.00
75401;BME280;63974;47.538;18.972;2023-12-20T14:47:43;99940.03;;;3.25;100.00
75401;BME280;63974;47.538;18.972;2023-12-20T14:50:47;99948.66;;;3.24;100.00
75401;BME280;63974;47.538;18.972;2023-12-20T14:53:51;99947.19;;;3.21;100.00
75401;BME280;63974;47.538;18.972;2023-12-20T14:56:53;99954.56;;;3.15;100.00
75401;BME280;63974;47.538;18.972;2023-12-20T14:59:56;99941.97;;;3.02;100.00
75401;BME280;63974;47.538;18.972;2023-12-20T15:02:59;99952.28;;;3.12;100.00
75401;BME280;63974;47.538;18.972;2023-12-20T15:06:02;99961.22;;;3.17;100.00
75401;BME280;63974;47.538;18.972;2023-12-20T15:09:05;99963.22;;;3.14;100.00
75401;BME280;63974;47.538;18.972;2023-12-20T15:12:08;99955.50;;;3.04;100.00
75401;BME280;63974;47.538;18.972;2023-12-20T15:15:11;99961.94;;;2.99;100.00
75401;BME280;63974;47.538;18.972;2023-12-20T15:18:14;99973.66;;;2.92;100.00
75401;BME280;63974;47.538;18.972;2023-12-20T15:21:17;99963.41;;;2.92;100.00
75401;BME280;63974;47.538;18.972;2023-12-20T15:24:20;99975.84;;;2.96;100.00
75401;BME280;63974;47.538;18.972;2023-12-20T15:27:29;99977.66;;;2.85;100.00
75401;BME280;63974;47.538;18.972;2023-12-20T15:30:32;99980.44;;;2.72;100.00
75401;BME280;63974;47.538;18.972;2023-12-20T15:33:35;99973.25;;;2.66;100.00
75401;BME280;63974;47.538;18.972;2023-12-20T15:36:38;99979.75;;;2.70;100.00
75401;BME280;63974;47.538;18.972;2023-12-20T15:39:41;99969.50;;;2.70;100.00
75401;BME280;63974;47.538;18.972;2023-12-20T15:42:45;99990.13;;;2.69;100.00
75401;BME280;63974;47.538;18.972;2023-12-20T15:45:48;99987.81;;;2.66;100.00
75401;BME280;63974;47.538;18.972;2023-12-20T15:48:50;99990.69;;;2.72;100.00
75401;BME280;63974;47.538;18.972;2023-12-20T15:51:55;99994.81;;;2.84;100.00